Downstream station:
SHEF ID: ESCO2 Skeleton Creek at Enid, OK
STATION TYPE:
Regulating: Stage = 14.60, Flow = 7003
PRECIP STAGE RIV-FLOW WTR-TEMP CONDUCT BAT-LOAD
in ft cfs F umho/cm volt
Ccp-Rev Ccp-Rev Ccp-Rev Ccp-Rev Ccp-Rev Ccp-Rev
(US/Central)
09/26 00:00 0.00 2.51 6 66.47 1251 12.97
09/26 01:00 0.00 2.54 7 65.75 1262 12.97
09/26 02:00 0.00 2.51 6 65.12 1257 12.97
09/26 03:00 0.00 2.51 6 64.40 1253 12.89
09/26 04:00 0.00 2.51 6 63.63 1246 12.89
09/26 05:00 0.00 2.52 6 63.01 1245 12.89
09/26 06:00 0.00 2.52 6 62.44 1244 12.89
09/26 07:00 0.00 2.51 6 62.02 1242 12.81
09/26 08:00 0.00 2.49 5 61.56 1236 12.81
09/26 09:00 0.00 2.47 5 61.45 1225 12.81
09/26 10:00 0.00 2.48 5 63.55 1189 13.05
09/26 11:00 0.00 2.49 5 68.43 1154 13.53
09/26 12:00 0.00 2.49 5 74.28 1124 13.44
09/26 13:00 0.00 2.56 8 79.23 1100 13.44
09/26 14:00 0.00 2.58 9 81.30 1103 13.44
09/26 15:00 0.00 2.50 6 83.16 1091 13.37
09/26 16:00 0.00 2.44 4 83.50 1083 13.37
09/26 17:00 0.00 2.40 3 82.42 1100 13.29
09/26 18:00 0.00 2.44 4 79.27 1115 13.21
09/26 19:00 0.00 2.53 7 73.78 1117 13.21
09/26 20:00 0.00 2.52 6 71.28 1154 13.13
09/26 21:00 0.00 2.52 6 69.48 1182 13.05
09/26 22:00 0.00 2.53 7 68.22 1198 13.05
09/26 23:00 0.00 2.54 7 67.08 1206 13.05